Skip Navigation Links
NOAA logo - Click to go to the NOAA homepage
NOAA's National Weather Service
Alaska Aviation Weather Unit
  NWS logo - Click to go to the NWS homepage
Left Navbar Graphic     12 AKDT = 20 GMT

   
NOAA is celebrating 200 years of science, service, and stewardship. Visit the NOAA 200th celebration Web site to learn more.
USA.gov is the U.S. Government's official Web portal to all Federal, state and local government Web resources and services.
Facebook
NWS on Facebook

Important Change Regarding the AAWU Web Presence

 

Over the last several months, the AAWU has been working to navigate its webpages to a nationally supported server. Security, as well as other needs, have necessitated the change.  We have been given an extension for the site changeover while we diligently work at addressing feedback received. As of July 14, 2017, aawu.arh.noaa.gov will be discontinued. The new AAWU web address is weather.gov/aawu. It is now live and will run in-parallel with the old site until it is discontinued on July 14, 2017. Please continue to send any feedback or questions regarding the new webpages to nws.ar.aawu.webauthors@noaa.gov.  Thank you for your patience during this time of transition.
AAWU Home :: Display TAF Add Bookmark
TAF CYPC 252004Z 2520/2523 30015G25KT 2SM -DZ BR OVC005 TEMPO
     2520/2523 P6SM NSW OVC010
    RMK NXT FCST WILL BE ISSUED AT 261445Z=

METAR CYPC 251400Z 28017G28KT 6SM -DZ BR OVC011 09/08 A2968 RMK SC8 SLP052= SPECI CYPC 251414Z 29022G27KT 2 1/2SM -DZ BR BKN004 OVC011 09/08 A2968 RMK SF6SC2 BLN DSPRD 8 SLP051= SPECI CYPC 251436Z 29022G29KT 6SM -DZ BR BKN004 OVC011 09/08 A2969 RMK SF6SC2 VIS SE 2 1/2 SLP055= METAR CYPC 251500Z 29022G27KT 10SM -DZ BKN004 OVC011 09/07 A2969 RMK SF5SC3 SLP057= SPECI CYPC 251510Z 28021KT 15SM SCT005 OVC011 09/07 A2970 RMK SF4SC4 SLP058= METAR CYPC 251600Z 29021G26KT 15SM SCT005 OVC011 09/07 A2970 RMK SF4SC4 SLP060= SPECI CYPC 251637Z 29015G20KT 15SM OVC012 09/07 A2971 RMK SC8 SLP063= METAR CYPC 251700Z 29014KT 15SM VCSH OVC012 09/07 A2971 RMK SC8 SLP062= SPECI CYPC 251714Z 29020KT 10SM -DZ OVC012 09/07 A2971 RMK SC8 SLP063= METAR CYPC 251800Z 30017KT 3SM -DZ BR OVC012 08/07 A2972 RMK SC8 SLP067= METAR CYPC 251900Z 29017KT 3SM -DZ BR OVC012 08/08 A2974 RMK SC8 SLP074= SPECI CYPC 251939Z 29018KT 2 1/2SM -DZ BR OVC005 08/07 A2975 RMK ST8 SLP076= METAR CYPC 252000Z 30016G21KT 2 1/2SM -DZ BR OVC005 08/07 A2975 RMK ST8 SLP077=
 Alaska TAF Map

NOAA's National Weather Service
Alaska Aviation Weather Unit
6930 Sand Lake Road
Anchorage, AK 99502-1845
Disclaimer
Credits
Glossary
Privacy Policy
About Us
Career Opportunities
Contact AAWU Internet Services Site last modified: April, 17th 2012